sensor_id;sensor_type;location;lat;lon;timestamp;P1;durP1;ratioP1;P2;durP2;ratioP2
3074;SDS011;1548;51.716;8.748;2022-08-19T00:01:50;764.53;;;695.23;;
3074;SDS011;1548;51.716;8.748;2022-08-19T00:04:18;763.03;;;689.17;;
3074;SDS011;1548;51.716;8.748;2022-08-19T00:06:46;773.40;;;724.83;;
3074;SDS011;1548;51.716;8.748;2022-08-19T00:09:12;753.70;;;672.73;;
3074;SDS011;1548;51.716;8.748;2022-08-19T00:11:40;778.37;;;719.87;;
3074;SDS011;1548;51.716;8.748;2022-08-19T00:14:06;754.40;;;673.97;;
3074;SDS011;1548;51.716;8.748;2022-08-19T00:16:34;751.67;;;656.97;;
3074;SDS011;1548;51.716;8.748;2022-08-19T00:19:02;733.73;;;613.07;;
3074;SDS011;1548;51.716;8.748;2022-08-19T00:21:28;782.07;;;731.43;;
3074;SDS011;1548;51.716;8.748;2022-08-19T00:23:54;780.57;;;725.27;;
3074;SDS011;1548;51.716;8.748;2022-08-19T00:26:23;753.97;;;640.33;;
3074;SDS011;1548;51.716;8.748;2022-08-19T00:28:49;721.57;;;582.40;;
3074;SDS011;1548;51.716;8.748;2022-08-19T00:31:15;754.40;;;667.10;;
3074;SDS011;1548;51.716;8.748;2022-08-19T00:33:41;759.67;;;684.50;;
3074;SDS011;1548;51.716;8.748;2022-08-19T00:36:07;747.97;;;647.27;;
3074;SDS011;1548;51.716;8.748;2022-08-19T00:38:35;774.07;;;726.87;;
3074;SDS011;1548;51.716;8.748;2022-08-19T00:41:01;754.43;;;679.80;;
3074;SDS011;1548;51.716;8.748;2022-08-19T00:43:29;762.27;;;680.97;;
3074;SDS011;1548;51.716;8.748;2022-08-19T00:45:55;760.70;;;677.33;;
3074;SDS011;1548;51.716;8.748;2022-08-19T00:48:21;743.33;;;640.10;;
3074;SDS011;1548;51.716;8.748;2022-08-19T00:50:48;773.03;;;706.97;;
3074;SDS011;1548;51.716;8.748;2022-08-19T00:53:18;739.67;;;618.37;;
3074;SDS011;1548;51.716;8.748;2022-08-19T00:55:47;722.00;;;555.20;;
3074;SDS011;1548;51.716;8.748;2022-08-19T00:58:17;683.60;;;479.83;;
3074;SDS011;1548;51.716;8.748;2022-08-19T01:00:46;733.83;;;595.10;;
3074;SDS011;1548;51.716;8.748;2022-08-19T01:03:13;704.93;;;479.97;;
3074;SDS011;1548;51.716;8.748;2022-08-19T01:05:42;734.90;;;568.53;;
3074;SDS011;1548;51.716;8.748;2022-08-19T01:08:08;712.07;;;521.17;;
3074;SDS011;1548;51.716;8.748;2022-08-19T01:10:39;696.43;;;480.00;;
3074;SDS011;1548;51.716;8.748;2022-08-19T01:13:08;701.77;;;503.67;;
3074;SDS011;1548;51.716;8.748;2022-08-19T01:15:38;703.23;;;484.63;;
3074;SDS011;1548;51.716;8.748;2022-08-19T01:18:10;707.77;;;516.47;;
3074;SDS011;1548;51.716;8.748;2022-08-19T01:20:38;723.77;;;576.77;;
3074;SDS011;1548;51.716;8.748;2022-08-19T01:23:04;731.20;;;584.77;;
3074;SDS011;1548;51.716;8.748;2022-08-19T01:25:32;726.10;;;574.03;;
3074;SDS011;1548;51.716;8.748;2022-08-19T01:28:03;720.70;;;551.83;;
3074;SDS011;1548;51.716;8.748;2022-08-19T01:30:31;722.87;;;558.37;;
3074;SDS011;1548;51.716;8.748;2022-08-19T01:32:59;731.67;;;574.47;;
3074;SDS011;1548;51.716;8.748;2022-08-19T01:35:26;741.63;;;605.73;;
3074;SDS011;1548;51.716;8.748;2022-08-19T01:37:55;723.40;;;563.63;;
3074;SDS011;1548;51.716;8.748;2022-08-19T01:40:23;761.47;;;658.17;;
3074;SDS011;1548;51.716;8.748;2022-08-19T01:42:51;743.10;;;619.73;;
3074;SDS011;1548;51.716;8.748;2022-08-19T01:45:19;707.37;;;494.90;;
3074;SDS011;1548;51.716;8.748;2022-08-19T01:47:46;709.63;;;498.80;;
3074;SDS011;1548;51.716;8.748;2022-08-19T01:50:12;703.00;;;495.23;;
3074;SDS011;1548;51.716;8.748;2022-08-19T01:52:42;705.23;;;501.00;;
3074;SDS011;1548;51.716;8.748;2022-08-19T01:55:10;708.30;;;497.23;;
3074;SDS011;1548;51.716;8.748;2022-08-19T01:57:38;731.17;;;586.87;;
3074;SDS011;1548;51.716;8.748;2022-08-19T02:00:07;726.93;;;558.63;;
3074;SDS011;1548;51.716;8.748;2022-08-19T02:02:36;740.43;;;565.97;;
3074;SDS011;1548;51.716;8.748;2022-08-19T02:05:02;694.03;;;445.23;;
3074;SDS011;1548;51.716;8.748;2022-08-19T02:07:28;704.40;;;501.43;;
3074;SDS011;1548;51.716;8.748;2022-08-19T02:09:54;694.07;;;474.43;;
3074;SDS011;1548;51.716;8.748;2022-08-19T02:12:20;740.33;;;624.43;;
3074;SDS011;1548;51.716;8.748;2022-08-19T02:14:46;731.53;;;570.67;;
3074;SDS011;1548;51.716;8.748;2022-08-19T02:17:12;729.40;;;594.20;;
3074;SDS011;1548;51.716;8.748;2022-08-19T02:19:38;743.90;;;624.57;;
3074;SDS011;1548;51.716;8.748;2022-08-19T02:22:04;700.17;;;500.77;;
3074;SDS011;1548;51.716;8.748;2022-08-19T02:24:30;713.77;;;537.40;;
3074;SDS011;1548;51.716;8.748;2022-08-19T02:26:56;746.40;;;613.53;;
3074;SDS011;1548;51.716;8.748;2022-08-19T02:29:22;693.77;;;454.60;;
3074;SDS011;1548;51.716;8.748;2022-08-19T02:31:47;697.67;;;476.87;;
3074;SDS011;1548;51.716;8.748;2022-08-19T02:34:13;696.23;;;490.23;;
3074;SDS011;1548;51.716;8.748;2022-08-19T02:36:39;692.27;;;457.47;;
3074;SDS011;1548;51.716;8.748;2022-08-19T02:39:04;730.17;;;597.47;;
3074;SDS011;1548;51.716;8.748;2022-08-19T02:41:31;725.33;;;569.80;;
3074;SDS011;1548;51.716;8.748;2022-08-19T02:43:58;715.37;;;531.07;;
3074;SDS011;1548;51.716;8.748;2022-08-19T02:46:27;734.07;;;576.03;;
3074;SDS011;1548;51.716;8.748;2022-08-19T02:48:55;731.57;;;588.17;;
3074;SDS011;1548;51.716;8.748;2022-08-19T02:51:32;708.13;;;484.60;;
3074;SDS011;1548;51.716;8.748;2022-08-19T02:54:00;714.40;;;517.67;;
3074;SDS011;1548;51.716;8.748;2022-08-19T02:56:26;712.90;;;531.23;;
3074;SDS011;1548;51.716;8.748;2022-08-19T02:58:53;726.70;;;568.33;;
3074;SDS011;1548;51.716;8.748;2022-08-19T03:01:29;696.07;;;454.10;;
3074;SDS011;1548;51.716;8.748;2022-08-19T03:03:57;721.73;;;560.97;;
3074;SDS011;1548;51.716;8.748;2022-08-19T03:06:24;700.17;;;456.97;;
3074;SDS011;1548;51.716;8.748;2022-08-19T03:08:51;729.83;;;564.40;;
3074;SDS011;1548;51.716;8.748;2022-08-19T03:11:38;740.20;;;596.70;;
3074;SDS011;1548;51.716;8.748;2022-08-19T03:14:04;734.07;;;559.87;;
3074;SDS011;1548;51.716;8.748;2022-08-19T03:16:32;706.37;;;494.20;;
3074;SDS011;1548;51.716;8.748;2022-08-19T03:19:04;711.67;;;502.90;;
3074;SDS011;1548;51.716;8.748;2022-08-19T03:21:31;701.00;;;478.10;;
3074;SDS011;1548;51.716;8.748;2022-08-19T03:23:58;700.53;;;451.53;;
3074;SDS011;1548;51.716;8.748;2022-08-19T03:26:26;728.00;;;573.73;;
3074;SDS011;1548;51.716;8.748;2022-08-19T03:28:52;734.20;;;599.30;;
3074;SDS011;1548;51.716;8.748;2022-08-19T03:31:19;690.33;;;514.23;;
3074;SDS011;1548;51.716;8.748;2022-08-19T03:33:50;645.50;;;614.70;;
3074;SDS011;1548;51.716;8.748;2022-08-19T03:36:17;636.60;;;606.23;;
3074;SDS011;1548;51.716;8.748;2022-08-19T03:38:48;701.90;;;668.40;;
3074;SDS011;1548;51.716;8.748;2022-08-19T03:41:17;575.73;;;536.83;;
3074;SDS011;1548;51.716;8.748;2022-08-19T03:43:44;726.53;;;651.83;;
3074;SDS011;1548;51.716;8.748;2022-08-19T03:46:12;734.17;;;643.07;;
3074;SDS011;1548;51.716;8.748;2022-08-19T03:48:40;725.93;;;618.50;;
3074;SDS011;1548;51.716;8.748;2022-08-19T03:51:07;672.63;;;486.13;;
3074;SDS011;1548;51.716;8.748;2022-08-19T03:53:40;737.63;;;621.37;;
3074;SDS011;1548;51.716;8.748;2022-08-19T03:56:07;699.57;;;666.20;;
3074;SDS011;1548;51.716;8.748;2022-08-19T03:58:34;636.67;;;452.90;;
3074;SDS011;1548;51.716;8.748;2022-08-19T04:01:00;644.40;;;449.53;;
3074;SDS011;1548;51.716;8.748;2022-08-19T04:03:26;597.07;;;490.43;;
3074;SDS011;1548;51.716;8.748;2022-08-19T04:05:52;583.73;;;532.00;;
3074;SDS011;1548;51.716;8.748;2022-08-19T04:08:18;659.23;;;514.97;;
3074;SDS011;1548;51.716;8.748;2022-08-19T04:10:47;689.77;;;524.73;;
3074;SDS011;1548;51.716;8.748;2022-08-19T04:13:14;733.93;;;570.17;;
3074;SDS011;1548;51.716;8.748;2022-08-19T04:15:42;723.87;;;523.87;;
3074;SDS011;1548;51.716;8.748;2022-08-19T04:18:09;747.30;;;594.67;;
3074;SDS011;1548;51.716;8.748;2022-08-19T04:20:42;740.97;;;592.97;;
3074;SDS011;1548;51.716;8.748;2022-08-19T04:23:09;732.47;;;545.60;;
3074;SDS011;1548;51.716;8.748;2022-08-19T04:25:39;702.63;;;478.57;;
3074;SDS011;1548;51.716;8.748;2022-08-19T04:28:08;712.67;;;609.97;;
3074;SDS011;1548;51.716;8.748;2022-08-19T04:30:44;682.93;;;487.70;;
3074;SDS011;1548;51.716;8.748;2022-08-19T04:33:19;685.07;;;432.10;;
3074;SDS011;1548;51.716;8.748;2022-08-19T04:35:47;700.37;;;449.83;;
3074;SDS011;1548;51.716;8.748;2022-08-19T04:38:14;744.37;;;579.77;;
3074;SDS011;1548;51.716;8.748;2022-08-19T04:40:45;688.83;;;426.27;;
3074;SDS011;1548;51.716;8.748;2022-08-19T04:43:32;749.17;;;588.07;;
3074;SDS011;1548;51.716;8.748;2022-08-19T04:46:08;721.00;;;587.63;;
3074;SDS011;1548;51.716;8.748;2022-08-19T04:48:37;748.57;;;608.80;;
3074;SDS011;1548;51.716;8.748;2022-08-19T04:51:08;702.67;;;629.93;;
3074;SDS011;1548;51.716;8.748;2022-08-19T04:53:36;721.30;;;565.50;;
3074;SDS011;1548;51.716;8.748;2022-08-19T04:56:07;756.47;;;580.77;;
3074;SDS011;1548;51.716;8.748;2022-08-19T04:58:35;728.73;;;558.17;;
3074;SDS011;1548;51.716;8.748;2022-08-19T05:01:02;708.20;;;466.57;;
3074;SDS011;1548;51.716;8.748;2022-08-19T05:03:28;728.53;;;540.53;;
3074;SDS011;1548;51.716;8.748;2022-08-19T05:05:59;693.37;;;438.03;;
3074;SDS011;1548;51.716;8.748;2022-08-19T05:08:32;749.40;;;586.50;;
3074;SDS011;1548;51.716;8.748;2022-08-19T05:11:00;749.30;;;585.60;;
3074;SDS011;1548;51.716;8.748;2022-08-19T05:13:25;759.80;;;646.83;;
3074;SDS011;1548;51.716;8.748;2022-08-19T05:15:55;760.43;;;600.57;;
3074;SDS011;1548;51.716;8.748;2022-08-19T05:18:22;750.80;;;595.67;;
3074;SDS011;1548;51.716;8.748;2022-08-19T05:21:07;726.47;;;520.83;;
3074;SDS011;1548;51.716;8.748;2022-08-19T05:24:13;728.67;;;588.00;;
3074;SDS011;1548;51.716;8.748;2022-08-19T05:26:40;696.60;;;634.40;;
3074;SDS011;1548;51.716;8.748;2022-08-19T05:29:11;629.33;;;599.30;;
3074;SDS011;1548;51.716;8.748;2022-08-19T05:31:38;577.20;;;549.67;;
3074;SDS011;1548;51.716;8.748;2022-08-19T05:34:04;572.30;;;545.00;;
3074;SDS011;1548;51.716;8.748;2022-08-19T05:36:34;588.27;;;560.20;;
3074;SDS011;1548;51.716;8.748;2022-08-19T05:39:05;474.43;;;451.80;;
3074;SDS011;1548;51.716;8.748;2022-08-19T05:41:32;517.70;;;493.00;;
3074;SDS011;1548;51.716;8.748;2022-08-19T05:43:58;564.97;;;538.00;;
3074;SDS011;1548;51.716;8.748;2022-08-19T05:46:26;526.37;;;501.27;;
3074;SDS011;1548;51.716;8.748;2022-08-19T05:48:52;599.03;;;570.43;;
3074;SDS011;1548;51.716;8.748;2022-08-19T05:51:18;627.93;;;597.97;;
3074;SDS011;1548;51.716;8.748;2022-08-19T05:53:44;501.17;;;477.27;;
3074;SDS011;1548;51.716;8.748;2022-08-19T05:56:14;443.27;;;422.07;;
3074;SDS011;1548;51.716;8.748;2022-08-19T05:58:41;545.90;;;519.83;;
3074;SDS011;1548;51.716;8.748;2022-08-19T06:01:10;547.80;;;521.70;;
3074;SDS011;1548;51.716;8.748;2022-08-19T06:03:38;347.27;;;330.70;;
3074;SDS011;1548;51.716;8.748;2022-08-19T06:06:04;467.00;;;444.70;;
3074;SDS011;1548;51.716;8.748;2022-08-19T06:08:31;315.80;;;300.73;;
3074;SDS011;1548;51.716;8.748;2022-08-19T06:10:58;415.07;;;395.27;;
3074;SDS011;1548;51.716;8.748;2022-08-19T06:13:41;471.50;;;449.00;;
3074;SDS011;1548;51.716;8.748;2022-08-19T06:16:08;582.83;;;555.07;;
3074;SDS011;1548;51.716;8.748;2022-08-19T06:18:34;528.87;;;503.67;;
3074;SDS011;1548;51.716;8.748;2022-08-19T06:20:59;482.97;;;459.90;;
3074;SDS011;1548;51.716;8.748;2022-08-19T06:23:28;298.20;;;283.97;;
3074;SDS011;1548;51.716;8.748;2022-08-19T06:25:54;301.83;;;287.40;;
3074;SDS011;1548;51.716;8.748;2022-08-19T06:28:20;166.13;;;158.17;;
3074;SDS011;1548;51.716;8.748;2022-08-19T06:30:45;463.87;;;441.73;;
3074;SDS011;1548;51.716;8.748;2022-08-19T06:33:11;413.27;;;393.57;;
3074;SDS011;1548;51.716;8.748;2022-08-19T06:35:40;448.73;;;427.30;;
3074;SDS011;1548;51.716;8.748;2022-08-19T06:38:06;516.33;;;491.67;;
3074;SDS011;1548;51.716;8.748;2022-08-19T06:40:32;643.03;;;612.37;;
3074;SDS011;1548;51.716;8.748;2022-08-19T06:42:57;665.97;;;634.20;;
3074;SDS011;1548;51.716;8.748;2022-08-19T06:45:25;637.33;;;606.93;;
3074;SDS011;1548;51.716;8.748;2022-08-19T06:47:51;605.57;;;576.67;;
3074;SDS011;1548;51.716;8.748;2022-08-19T06:50:20;587.33;;;559.33;;
3074;SDS011;1548;51.716;8.748;2022-08-19T06:52:49;599.97;;;571.37;;
3074;SDS011;1548;51.716;8.748;2022-08-19T06:55:15;517.63;;;492.93;;
3074;SDS011;1548;51.716;8.748;2022-08-19T06:57:41;586.00;;;558.07;;
3074;SDS011;1548;51.716;8.748;2022-08-19T07:00:08;349.20;;;332.50;;
3074;SDS011;1548;51.716;8.748;2022-08-19T07:02:41;404.03;;;384.73;;
3074;SDS011;1548;51.716;8.748;2022-08-19T07:05:07;606.13;;;577.20;;
3074;SDS011;1548;51.716;8.748;2022-08-19T07:07:33;172.63;;;156.90;;
3074;SDS011;1548;51.716;8.748;2022-08-19T07:09:59;652.17;;;621.07;;
3074;SDS011;1548;51.716;8.748;2022-08-19T07:12:26;688.60;;;650.93;;
3074;SDS011;1548;51.716;8.748;2022-08-19T07:14:59;737.27;;;702.10;;
3074;SDS011;1548;51.716;8.748;2022-08-19T07:17:26;788.33;;;750.73;;
3074;SDS011;1548;51.716;8.748;2022-08-19T07:19:52;757.47;;;701.63;;
3074;SDS011;1548;51.716;8.748;2022-08-19T07:22:18;738.97;;;703.70;;
3074;SDS011;1548;51.716;8.748;2022-08-19T07:24:45;749.43;;;605.23;;
3074;SDS011;1548;51.716;8.748;2022-08-19T07:27:11;732.70;;;697.77;;
3074;SDS011;1548;51.716;8.748;2022-08-19T07:29:38;726.13;;;691.47;;
3074;SDS011;1548;51.716;8.748;2022-08-19T07:32:05;716.30;;;682.13;;
3074;SDS011;1548;51.716;8.748;2022-08-19T07:34:31;752.87;;;692.47;;
3074;SDS011;1548;51.716;8.748;2022-08-19T07:37:01;764.87;;;685.30;;
3074;SDS011;1548;51.716;8.748;2022-08-19T07:39:29;793.23;;;750.97;;
3074;SDS011;1548;51.716;8.748;2022-08-19T07:41:57;803.30;;;757.40;;
3074;SDS011;1548;51.716;8.748;2022-08-19T07:44:24;806.93;;;768.47;;
3074;SDS011;1548;51.716;8.748;2022-08-19T07:46:52;762.63;;;726.27;;
3074;SDS011;1548;51.716;8.748;2022-08-19T07:49:21;779.13;;;712.20;;
3074;SDS011;1548;51.716;8.748;2022-08-19T07:51:48;811.80;;;759.50;;
3074;SDS011;1548;51.716;8.748;2022-08-19T07:54:16;765.53;;;705.20;;
3074;SDS011;1548;51.716;8.748;2022-08-19T07:56:42;761.10;;;724.83;;
3074;SDS011;1548;51.716;8.748;2022-08-19T07:59:08;807.33;;;768.83;;
3074;SDS011;1548;51.716;8.748;2022-08-19T08:01:34;764.10;;;723.10;;
3074;SDS011;1548;51.716;8.748;2022-08-19T08:04:01;775.80;;;735.90;;
3074;SDS011;1548;51.716;8.748;2022-08-19T08:06:58;757.30;;;721.20;;
3074;SDS011;1548;51.716;8.748;2022-08-19T08:09:43;781.13;;;718.10;;
3074;SDS011;1548;51.716;8.748;2022-08-19T08:12:14;813.37;;;774.57;;
3074;SDS011;1548;51.716;8.748;2022-08-19T08:14:51;811.77;;;773.07;;
3074;SDS011;1548;51.716;8.748;2022-08-19T08:17:20;782.13;;;744.83;;
3074;SDS011;1548;51.716;8.748;2022-08-19T08:19:47;808.67;;;770.10;;
3074;SDS011;1548;51.716;8.748;2022-08-19T08:22:15;831.60;;;791.93;;
3074;SDS011;1548;51.716;8.748;2022-08-19T08:25:05;836.73;;;796.83;;
3074;SDS011;1548;51.716;8.748;2022-08-19T08:27:36;793.67;;;753.67;;
3074;SDS011;1548;51.716;8.748;2022-08-19T08:30:05;845.13;;;804.83;;
3074;SDS011;1548;51.716;8.748;2022-08-19T08:32:35;834.67;;;794.87;;
3074;SDS011;1548;51.716;8.748;2022-08-19T08:35:02;849.77;;;809.27;;
3074;SDS011;1548;51.716;8.748;2022-08-19T08:37:32;844.57;;;804.30;;
3074;SDS011;1548;51.716;8.748;2022-08-19T08:39:58;808.90;;;770.30;;
3074;SDS011;1548;51.716;8.748;2022-08-19T08:42:27;833.23;;;793.50;;
3074;SDS011;1548;51.716;8.748;2022-08-19T08:44:58;835.67;;;795.83;;
3074;SDS011;1548;51.716;8.748;2022-08-19T08:47:29;863.20;;;822.03;;
3074;SDS011;1548;51.716;8.748;2022-08-19T08:50:15;864.47;;;823.27;;
3074;SDS011;1548;51.716;8.748;2022-08-19T08:52:48;870.30;;;828.80;;
3074;SDS011;1548;51.716;8.748;2022-08-19T08:55:19;864.00;;;822.80;;
3074;SDS011;1548;51.716;8.748;2022-08-19T09:00:20;886.67;;;844.40;;
3074;SDS011;1548;51.716;8.748;2022-08-19T09:02:48;869.47;;;828.00;;
3074;SDS011;1548;51.716;8.748;2022-08-19T09:05:14;868.10;;;826.73;;
3074;SDS011;1548;51.716;8.748;2022-08-19T09:15:46;880.93;;;838.93;;
3074;SDS011;1548;51.716;8.748;2022-08-19T09:18:16;884.50;;;842.33;;
3074;SDS011;1548;51.716;8.748;2022-08-19T09:20:42;880.33;;;838.37;;
3074;SDS011;1548;51.716;8.748;2022-08-19T09:23:07;906.53;;;863.33;;
3074;SDS011;1548;51.716;8.748;2022-08-19T09:25:34;882.23;;;840.17;;
3074;SDS011;1548;51.716;8.748;2022-08-19T09:28:00;857.13;;;816.27;;
3074;SDS011;1548;51.716;8.748;2022-08-19T09:30:30;833.20;;;793.50;;
3074;SDS011;1548;51.716;8.748;2022-08-19T09:32:58;882.17;;;840.10;;
3074;SDS011;1548;51.716;8.748;2022-08-19T09:35:25;880.03;;;838.07;;
3074;SDS011;1548;51.716;8.748;2022-08-19T09:37:53;874.40;;;832.73;;
3074;SDS011;1548;51.716;8.748;2022-08-19T09:40:20;875.67;;;833.90;;
3074;SDS011;1548;51.716;8.748;2022-08-19T09:42:46;904.97;;;861.83;;
3074;SDS011;1548;51.716;8.748;2022-08-19T09:45:13;903.60;;;860.50;;
3074;SDS011;1548;51.716;8.748;2022-08-19T09:47:40;912.13;;;868.63;;
3074;SDS011;1548;51.716;8.748;2022-08-19T09:50:06;896.83;;;854.07;;
3074;SDS011;1548;51.716;8.748;2022-08-19T09:52:33;924.67;;;880.57;;
3074;SDS011;1548;51.716;8.748;2022-08-19T09:55:02;897.40;;;854.63;;
3074;SDS011;1548;51.716;8.748;2022-08-19T09:57:29;931.97;;;887.53;;
3074;SDS011;1548;51.716;8.748;2022-08-19T09:59:55;906.77;;;863.57;;
3074;SDS011;1548;51.716;8.748;2022-08-19T10:02:21;910.17;;;866.80;;
3074;SDS011;1548;51.716;8.748;2022-08-19T10:04:46;917.00;;;873.30;;
3074;SDS011;1548;51.716;8.748;2022-08-19T10:07:30;911.20;;;867.73;;
3074;SDS011;1548;51.716;8.748;2022-08-19T10:09:56;909.80;;;866.43;;
3074;SDS011;1548;51.716;8.748;2022-08-19T10:12:22;915.33;;;871.67;;
3074;SDS011;1548;51.716;8.748;2022-08-19T10:14:48;930.67;;;886.30;;
3074;SDS011;1548;51.716;8.748;2022-08-19T10:17:15;922.37;;;878.40;;
3074;SDS011;1548;51.716;8.748;2022-08-19T10:19:42;929.47;;;885.17;;
3074;SDS011;1548;51.716;8.748;2022-08-19T10:22:08;922.97;;;878.97;;
3074;SDS011;1548;51.716;8.748;2022-08-19T10:24:36;897.80;;;855.00;;
3074;SDS011;1548;51.716;8.748;2022-08-19T10:27:01;883.23;;;841.13;;
3074;SDS011;1548;51.716;8.748;2022-08-19T10:29:30;877.90;;;836.03;;
3074;SDS011;1548;51.716;8.748;2022-08-19T10:32:02;891.47;;;848.97;;
3074;SDS011;1548;51.716;8.748;2022-08-19T10:34:30;846.37;;;806.00;;
3074;SDS011;1548;51.716;8.748;2022-08-19T10:36:57;850.67;;;810.10;;
3074;SDS011;1548;51.716;8.748;2022-08-19T10:39:24;857.90;;;817.00;;
3074;SDS011;1548;51.716;8.748;2022-08-19T10:41:50;754.70;;;713.10;;
3074;SDS011;1548;51.716;8.748;2022-08-19T10:44:15;824.80;;;785.47;;
3074;SDS011;1548;51.716;8.748;2022-08-19T10:46:43;876.33;;;834.53;;
3074;SDS011;1548;51.716;8.748;2022-08-19T10:49:12;853.43;;;812.73;;
3074;SDS011;1548;51.716;8.748;2022-08-19T10:51:38;839.73;;;799.70;;
3074;SDS011;1548;51.716;8.748;2022-08-19T10:54:23;899.00;;;856.13;;
3074;SDS011;1548;51.716;8.748;2022-08-19T10:57:09;907.97;;;864.70;;
3074;SDS011;1548;51.716;8.748;2022-08-19T10:59:35;854.03;;;813.33;;
3074;SDS011;1548;51.716;8.748;2022-08-19T11:02:01;925.47;;;881.37;;
3074;SDS011;1548;51.716;8.748;2022-08-19T11:04:29;897.60;;;854.80;;
3074;SDS011;1548;51.716;8.748;2022-08-19T11:06:56;922.97;;;878.97;;
3074;SDS011;1548;51.716;8.748;2022-08-19T11:09:23;889.23;;;846.87;;
3074;SDS011;1548;51.716;8.748;2022-08-19T11:11:50;924.40;;;880.33;;
3074;SDS011;1548;51.716;8.748;2022-08-19T11:14:17;891.87;;;849.37;;
3074;SDS011;1548;51.716;8.748;2022-08-19T11:16:45;925.80;;;881.63;;
3074;SDS011;1548;51.716;8.748;2022-08-19T11:19:12;906.83;;;863.60;;
3074;SDS011;1548;51.716;8.748;2022-08-19T11:21:43;930.00;;;885.67;;
3074;SDS011;1548;51.716;8.748;2022-08-19T11:24:13;937.57;;;892.90;;
3074;SDS011;1548;51.716;8.748;2022-08-19T11:26:45;917.87;;;874.10;;
3074;SDS011;1548;51.716;8.748;2022-08-19T11:29:13;951.60;;;906.23;;
3074;SDS011;1548;51.716;8.748;2022-08-19T11:31:40;910.63;;;867.23;;
3074;SDS011;1548;51.716;8.748;2022-08-19T11:34:08;924.17;;;880.10;;
3074;SDS011;1548;51.716;8.748;2022-08-19T11:36:37;887.97;;;845.63;;
3074;SDS011;1548;51.716;8.748;2022-08-19T11:39:04;833.97;;;794.20;;
3074;SDS011;1548;51.716;8.748;2022-08-19T11:41:31;888.37;;;846.00;;
3074;SDS011;1548;51.716;8.748;2022-08-19T11:43:57;844.77;;;804.50;;
3074;SDS011;1548;51.716;8.748;2022-08-19T11:46:23;824.83;;;785.50;;
3074;SDS011;1548;51.716;8.748;2022-08-19T11:48:50;792.00;;;754.23;;
3074;SDS011;1548;51.716;8.748;2022-08-19T11:51:17;838.57;;;798.57;;
3074;SDS011;1548;51.716;8.748;2022-08-19T11:53:44;846.63;;;806.27;;
3074;SDS011;1548;51.716;8.748;2022-08-19T11:56:11;818.77;;;779.73;;
3074;SDS011;1548;51.716;8.748;2022-08-19T11:58:37;856.87;;;816.00;;
3074;SDS011;1548;51.716;8.748;2022-08-19T12:01:07;835.67;;;795.83;;
3074;SDS011;1548;51.716;8.748;2022-08-19T12:03:36;816.27;;;777.33;;
3074;SDS011;1548;51.716;8.748;2022-08-19T12:06:05;880.93;;;838.93;;
3074;SDS011;1548;51.716;8.748;2022-08-19T12:08:32;831.07;;;791.43;;
3074;SDS011;1548;51.716;8.748;2022-08-19T12:10:58;826.00;;;786.60;;
3074;SDS011;1548;51.716;8.748;2022-08-19T12:13:26;517.83;;;121.07;;
3074;SDS011;1548;51.716;8.748;2022-08-19T12:15:53;480.03;;;134.77;;
3074;SDS011;1548;51.716;8.748;2022-08-19T12:18:19;504.47;;;89.17;;
3074;SDS011;1548;51.716;8.748;2022-08-19T12:20:45;511.07;;;100.73;;
3074;SDS011;1548;51.716;8.748;2022-08-19T12:23:11;507.87;;;112.87;;
3074;SDS011;1548;51.716;8.748;2022-08-19T12:25:37;530.43;;;145.73;;
3074;SDS011;1548;51.716;8.748;2022-08-19T12:28:14;507.77;;;97.17;;
3074;SDS011;1548;51.716;8.748;2022-08-19T12:30:44;496.30;;;132.43;;
3074;SDS011;1548;51.716;8.748;2022-08-19T12:33:09;541.50;;;177.33;;
3074;SDS011;1548;51.716;8.748;2022-08-19T12:35:35;504.00;;;96.63;;
3074;SDS011;1548;51.716;8.748;2022-08-19T12:38:09;513.83;;;358.47;;
3074;SDS011;1548;51.716;8.748;2022-08-19T12:40:35;863.30;;;822.13;;
3074;SDS011;1548;51.716;8.748;2022-08-19T12:43:01;482.93;;;245.43;;
3074;SDS011;1548;51.716;8.748;2022-08-19T12:45:26;531.77;;;131.93;;
3074;SDS011;1548;51.716;8.748;2022-08-19T12:47:53;516.33;;;97.73;;
3074;SDS011;1548;51.716;8.748;2022-08-19T12:50:18;596.83;;;532.53;;
3074;SDS011;1548;51.716;8.748;2022-08-19T12:52:46;752.27;;;716.40;;
3074;SDS011;1548;51.716;8.748;2022-08-19T12:55:12;891.27;;;848.77;;
3074;SDS011;1548;51.716;8.748;2022-08-19T12:57:38;866.80;;;825.47;;
3074;SDS011;1548;51.716;8.748;2022-08-19T13:02:32;796.13;;;758.17;;
3074;SDS011;1548;51.716;8.748;2022-08-19T13:04:59;905.53;;;862.33;;
3074;SDS011;1548;51.716;8.748;2022-08-19T13:07:25;850.80;;;810.27;;
3074;SDS011;1548;51.716;8.748;2022-08-19T13:09:51;887.10;;;844.80;;
3074;SDS011;1548;51.716;8.748;2022-08-19T13:12:17;507.40;;;143.10;;
3074;SDS011;1548;51.716;8.748;2022-08-19T13:14:43;551.60;;;199.87;;
3074;SDS011;1548;51.716;8.748;2022-08-19T13:17:14;867.00;;;825.67;;
3074;SDS011;1548;51.716;8.748;2022-08-19T13:19:40;622.23;;;389.07;;
3074;SDS011;1548;51.716;8.748;2022-08-19T13:22:06;541.93;;;137.40;;
3074;SDS011;1548;51.716;8.748;2022-08-19T13:24:32;526.30;;;105.43;;
3074;SDS011;1548;51.716;8.748;2022-08-19T13:26:58;582.77;;;201.97;;
3074;SDS011;1548;51.716;8.748;2022-08-19T13:29:24;583.40;;;219.13;;
3074;SDS011;1548;51.716;8.748;2022-08-19T13:32:09;516.63;;;98.07;;
3074;SDS011;1548;51.716;8.748;2022-08-19T13:34:53;522.17;;;116.57;;
3074;SDS011;1548;51.716;8.748;2022-08-19T13:37:18;525.50;;;109.97;;
3074;SDS011;1548;51.716;8.748;2022-08-19T13:40:04;520.17;;;140.07;;
3074;SDS011;1548;51.716;8.748;2022-08-19T13:42:31;521.30;;;124.97;;
3074;SDS011;1548;51.716;8.748;2022-08-19T13:44:57;520.53;;;120.63;;
3074;SDS011;1548;51.716;8.748;2022-08-19T13:47:23;515.13;;;124.60;;
3074;SDS011;1548;51.716;8.748;2022-08-19T13:49:49;527.33;;;114.73;;
3074;SDS011;1548;51.716;8.748;2022-08-19T13:52:14;528.47;;;116.00;;
3074;SDS011;1548;51.716;8.748;2022-08-19T13:54:40;571.43;;;196.37;;
3074;SDS011;1548;51.716;8.748;2022-08-19T13:57:06;647.80;;;357.70;;
3074;SDS011;1548;51.716;8.748;2022-08-19T13:59:31;564.20;;;183.10;;
3074;SDS011;1548;51.716;8.748;2022-08-19T14:01:58;659.17;;;392.63;;
3074;SDS011;1548;51.716;8.748;2022-08-19T14:04:25;789.33;;;751.70;;
3074;SDS011;1548;51.716;8.748;2022-08-19T14:06:50;750.30;;;701.00;;
3074;SDS011;1548;51.716;8.748;2022-08-19T14:09:16;666.07;;;401.63;;
3074;SDS011;1548;51.716;8.748;2022-08-19T14:11:41;506.97;;;103.77;;
3074;SDS011;1548;51.716;8.748;2022-08-19T14:14:07;563.80;;;195.23;;
3074;SDS011;1548;51.716;8.748;2022-08-19T14:16:32;633.57;;;334.23;;
3074;SDS011;1548;51.716;8.748;2022-08-19T14:18:58;663.13;;;400.23;;
3074;SDS011;1548;51.716;8.748;2022-08-19T14:21:24;599.73;;;388.20;;
3074;SDS011;1548;51.716;8.748;2022-08-19T14:23:50;554.03;;;164.77;;
3074;SDS011;1548;51.716;8.748;2022-08-19T14:26:18;519.17;;;114.20;;
3074;SDS011;1548;51.716;8.748;2022-08-19T14:28:44;507.57;;;130.60;;
3074;SDS011;1548;51.716;8.748;2022-08-19T14:31:11;510.80;;;116.63;;
3074;SDS011;1548;51.716;8.748;2022-08-19T14:33:38;510.90;;;127.20;;
3074;SDS011;1548;51.716;8.748;2022-08-19T14:36:05;507.93;;;146.27;;
3074;SDS011;1548;51.716;8.748;2022-08-19T14:38:31;483.07;;;157.23;;
3074;SDS011;1548;51.716;8.748;2022-08-19T14:43:44;516.23;;;156.80;;